createdAt,value
2018-09-27T00:02:07.206Z,12.28
2018-09-27T00:04:35.054Z,12.42
2018-09-27T00:07:07.927Z,12.49
2018-09-27T00:09:35.767Z,12.48
2018-09-27T00:12:04.865Z,12.47
2018-09-27T00:14:34.545Z,12.43
2018-09-27T00:17:20.014Z,12.29
2018-09-27T00:20:04.382Z,12.25
2018-09-27T00:22:48.331Z,12.22
2018-09-27T00:28:06.580Z,11.92
2018-09-27T00:30:37.011Z,11.79
2018-09-27T00:33:04.826Z,11.78
2018-09-27T00:35:32.144Z,11.83
2018-09-27T00:37:59.505Z,11.82
2018-09-27T00:40:26.892Z,11.88
2018-09-27T00:42:54.327Z,11.88
2018-09-27T00:45:21.683Z,11.97
2018-09-27T00:47:49.040Z,11.96
2018-09-27T00:50:16.355Z,11.96
2018-09-27T00:52:46.351Z,11.92
2018-09-27T00:55:13.739Z,11.90
2018-09-27T00:57:41.070Z,11.86
2018-09-27T01:00:08.862Z,11.77
2018-09-27T01:02:36.297Z,11.70
2018-09-27T01:05:03.714Z,11.64
2018-09-27T01:07:31.789Z,11.56
2018-09-27T01:09:59.236Z,11.57
2018-09-27T01:12:26.651Z,11.65
2018-09-27T01:14:54.028Z,11.77
2018-09-27T01:17:21.364Z,11.89
2018-09-27T01:19:48.707Z,11.99
2018-09-27T01:22:17.991Z,12.03
2018-09-27T01:24:47.099Z,12.03
2018-09-27T01:27:16.822Z,12.04
2018-09-27T01:29:44.308Z,12.11
2018-09-27T01:32:14.348Z,12.16
2018-09-27T01:34:42.612Z,12.18
2018-09-27T01:37:11.537Z,12.16
2018-09-27T01:39:39.516Z,12.14
2018-09-27T01:42:08.126Z,12.17
2018-09-27T01:44:36.861Z,12.18
2018-09-27T01:47:06.525Z,12.20
2018-09-27T01:49:34.296Z,12.20
2018-09-27T01:52:03.701Z,12.22
2018-09-27T01:54:33.654Z,12.22
2018-09-27T01:57:00.988Z,12.21
2018-09-27T01:59:28.536Z,12.22
2018-09-27T02:01:57.057Z,12.16
2018-09-27T02:04:24.651Z,12.03
2018-09-27T02:06:55.076Z,11.94
2018-09-27T02:09:23.143Z,11.89
2018-09-27T02:11:51.162Z,11.86
2018-09-27T02:14:19.774Z,11.82
2018-09-27T02:16:48.020Z,11.75
2018-09-27T02:19:16.454Z,11.65
2018-09-27T02:21:48.409Z,11.62
2018-09-27T02:24:15.802Z,11.57
2018-09-27T02:26:43.115Z,11.53
2018-09-27T02:29:10.506Z,11.53
2018-09-27T02:31:38.582Z,11.49
2018-09-27T02:34:05.886Z,11.41
2018-09-27T02:36:33.349Z,11.31
2018-09-27T02:39:00.676Z,11.17
2018-09-27T02:41:28.048Z,11.08
2018-09-27T02:43:55.404Z,11.01
2018-09-27T02:46:23.373Z,10.98
2018-09-27T02:48:51.873Z,10.93
2018-09-27T02:51:19.247Z,10.99
2018-09-27T02:53:46.597Z,11.12
2018-09-27T02:56:13.946Z,11.23
2018-09-27T02:58:42.962Z,11.36
2018-09-27T03:01:10.378Z,11.49
2018-09-27T03:03:37.749Z,11.51
2018-09-27T03:06:05.476Z,11.56
2018-09-27T03:08:32.852Z,11.61
2018-09-27T03:11:01.634Z,11.71
2018-09-27T03:13:29.704Z,11.84
2018-09-27T03:16:01.145Z,11.93
2018-09-27T03:18:31.796Z,12.05
2018-09-27T03:21:02.244Z,12.19
2018-09-27T03:23:33.024Z,12.25
2018-09-27T03:26:02.693Z,12.36
2018-09-27T03:28:32.483Z,12.40
2018-09-27T03:31:00.892Z,12.42
2018-09-27T03:33:28.282Z,12.49
2018-09-27T03:36:00.535Z,12.57
2018-09-27T03:38:36.997Z,12.55
2018-09-27T03:41:05.978Z,12.52
2018-09-27T03:43:35.922Z,12.52
2018-09-27T03:46:05.781Z,12.50
2018-09-27T03:48:38.058Z,12.51
2018-09-27T03:51:10.914Z,12.60
2018-09-27T03:53:45.339Z,12.62
2018-09-27T03:56:14.384Z,12.61
2018-09-27T03:58:41.802Z,12.65
2018-09-27T04:01:10.291Z,12.66
2018-09-27T04:03:37.531Z,12.69
2018-09-27T04:06:04.927Z,12.74
2018-09-27T04:08:33.402Z,12.72
2018-09-27T04:11:00.723Z,12.75
2018-09-27T04:13:28.232Z,12.67
2018-09-27T04:15:56.504Z,12.62
2018-09-27T04:18:24.309Z,12.57
2018-09-27T04:20:53.130Z,12.53
2018-09-27T04:23:33.392Z,12.47
2018-09-27T04:26:01.857Z,12.41
2018-09-27T04:28:29.277Z,12.37
2018-09-27T04:30:56.683Z,12.35
2018-09-27T04:33:23.973Z,12.38
2018-09-27T04:35:56.526Z,12.43
2018-09-27T04:38:23.979Z,12.52
2018-09-27T04:40:52.580Z,12.55
2018-09-27T04:43:19.870Z,12.53
2018-09-27T04:45:50.583Z,12.51
2018-09-27T04:51:47.812Z,12.52
2018-09-27T04:54:33.560Z,12.49
2018-09-27T04:57:18.164Z,12.46
2018-09-27T05:00:03.795Z,12.42
2018-09-27T05:02:46.895Z,12.40
2018-09-27T05:05:19.778Z,12.37
2018-09-27T05:07:55.458Z,12.40
2018-09-27T05:10:25.300Z,12.39
2018-09-27T05:12:57.614Z,12.36
2018-09-27T05:15:29.210Z,12.32
2018-09-27T05:18:04.500Z,12.29
2018-09-27T05:20:36.327Z,12.32
2018-09-27T05:23:05.564Z,12.33
2018-09-27T05:25:37.679Z,12.34
2018-09-27T05:28:08.712Z,12.33
2018-09-27T05:30:43.560Z,12.33
2018-09-27T05:33:17.373Z,12.31
2018-09-27T05:35:50.878Z,12.29
2018-09-27T05:38:25.293Z,12.30
2018-09-27T05:41:11.839Z,12.30
2018-09-27T05:44:00.842Z,12.31
2018-09-27T05:46:29.704Z,12.35
2018-09-27T05:49:07.275Z,12.45
2018-09-27T05:51:41.336Z,12.48
2018-09-27T05:54:12.725Z,12.54
2018-09-27T05:56:47.868Z,12.59
2018-09-27T05:59:16.789Z,12.66
2018-09-27T06:01:53.907Z,12.75
2018-09-27T06:07:12.486Z,12.93
2018-09-27T06:09:45.914Z,13.02
2018-09-27T06:12:20.014Z,13.17
2018-09-27T06:14:51.333Z,13.34
2018-09-27T06:17:28.337Z,13.51
2018-09-27T06:20:01.400Z,13.64
2018-09-27T06:22:31.189Z,13.71
2018-09-27T06:25:05.768Z,13.74
2018-09-27T06:27:35.520Z,13.80
2018-09-27T06:30:05.310Z,13.84
2018-09-27T06:32:39.378Z,13.91
2018-09-27T06:35:07.461Z,14.01
2018-09-27T06:37:39.709Z,14.17
2018-09-27T06:40:10.952Z,14.44
2018-09-27T06:42:39.344Z,14.79
2018-09-27T06:45:08.461Z,15.12
2018-09-27T06:47:40.433Z,15.29
2018-09-27T06:50:13.990Z,15.65
2018-09-27T06:52:47.761Z,16.11
2018-09-27T06:58:09.998Z,16.79
2018-09-27T07:00:38.567Z,17.25
2018-09-27T07:03:07.568Z,17.18
2018-09-27T07:05:35.057Z,17.15
2018-09-27T07:08:03.141Z,17.02
2018-09-27T07:10:31.309Z,16.90
2018-09-27T07:13:06.671Z,16.99
2018-09-27T07:15:42.969Z,17.49
2018-09-27T07:18:19.379Z,18.05
2018-09-27T07:20:51.778Z,18.28
2018-09-27T07:23:35.023Z,18.58
2018-09-27T07:26:03.004Z,18.54
2018-09-27T07:28:34.437Z,18.47
2018-09-27T07:31:11.378Z,18.42
2018-09-27T07:33:39.265Z,18.83
2018-09-27T07:36:17.380Z,19.09
2018-09-27T07:38:45.325Z,18.70
2018-09-27T07:41:12.802Z,18.18
2018-09-27T07:43:49.588Z,17.95
2018-09-27T07:46:18.037Z,18.42
2018-09-27T07:48:59.662Z,19.03
2018-09-27T07:51:31.920Z,19.31
2018-09-27T07:54:05.342Z,19.37
2018-09-27T07:56:33.086Z,19.49
2018-09-27T07:59:06.024Z,19.51
2018-09-27T08:01:36.804Z,19.31
2018-09-27T08:04:06.845Z,19.63
2018-09-27T08:06:41.392Z,19.70
2018-09-27T08:09:18.011Z,19.44
2018-09-27T08:11:49.458Z,19.65
2018-09-27T08:14:23.169Z,19.87
2018-09-27T08:16:52.484Z,20.01
2018-09-27T08:19:30.304Z,20.15
2018-09-27T08:22:00.157Z,20.16
2018-09-27T08:24:33.756Z,20.38
2018-09-27T08:27:08.767Z,20.80
2018-09-27T08:29:42.197Z,21.07
2018-09-27T08:32:21.595Z,21.64
2018-09-27T08:34:59.881Z,21.74
2018-09-27T08:37:35.178Z,22.10
2018-09-27T08:40:06.090Z,22.11
2018-09-27T08:42:37.580Z,21.24
2018-09-27T08:45:15.289Z,20.77
2018-09-27T08:47:48.784Z,20.85
2018-09-27T08:50:28.282Z,21.22
2018-09-27T08:53:01.574Z,21.63
2018-09-27T08:55:31.463Z,22.29
2018-09-27T08:58:08.808Z,22.46
2018-09-27T09:00:39.984Z,22.66
2018-09-27T09:03:14.138Z,22.81
2018-09-27T09:05:49.245Z,22.77
2018-09-27T09:08:18.042Z,22.70
2018-09-27T09:10:46.949Z,22.89
2018-09-27T09:13:21.284Z,23.13
2018-09-27T09:15:52.835Z,23.32
2018-09-27T09:18:26.104Z,23.12
2018-09-27T09:20:53.730Z,23.66
2018-09-27T09:23:36.544Z,23.48
2018-09-27T09:26:05.423Z,23.36
2018-09-27T09:28:35.985Z,23.57
2018-09-27T09:31:12.704Z,23.71
2018-09-27T09:33:40.840Z,23.68
2018-09-27T09:36:08.335Z,23.92
2018-09-27T09:38:41.097Z,23.73
2018-09-27T09:41:08.587Z,23.83
2018-09-27T09:43:36.642Z,23.90
2018-09-27T09:46:04.878Z,24.03
2018-09-27T09:48:33.231Z,23.96
2018-09-27T09:51:00.701Z,24.03
2018-09-27T09:53:29.355Z,24.07
2018-09-27T09:56:04.127Z,23.96
2018-09-27T09:58:44.396Z,23.92
2018-09-27T10:01:13.698Z,23.89
2018-09-27T10:03:41.237Z,24.22
2018-09-27T10:06:08.746Z,24.25
2018-09-27T10:08:36.275Z,24.39
2018-09-27T10:11:06.941Z,24.35
2018-09-27T10:13:41.111Z,24.23
2018-09-27T10:16:11.935Z,24.42
2018-09-27T10:18:39.516Z,24.87
2018-09-27T10:21:07.455Z,24.00
2018-09-27T10:23:36.357Z,24.03
2018-09-27T10:26:05.522Z,24.60
2018-09-27T10:28:36.005Z,24.84
2018-09-27T10:31:04.175Z,25.00
2018-09-27T10:33:33.107Z,25.21
2018-09-27T10:36:00.537Z,25.44
2018-09-27T10:38:28.464Z,25.74
2018-09-27T10:41:01.938Z,25.65
2018-09-27T10:43:36.807Z,25.84
2018-09-27T10:46:11.179Z,25.76
2018-09-27T10:48:39.417Z,25.77
2018-09-27T10:51:12.552Z,25.84
2018-09-27T10:53:41.080Z,26.47
2018-09-27T10:56:08.937Z,26.70
2018-09-27T10:58:40.877Z,26.57
2018-09-27T11:01:08.913Z,26.65
2018-09-27T11:03:37.034Z,26.64
2018-09-27T11:06:06.282Z,26.60
2018-09-27T11:08:34.566Z,26.61
2018-09-27T11:11:02.075Z,26.51
2018-09-27T11:13:30.425Z,26.81
2018-09-27T11:15:59.447Z,26.66
2018-09-27T11:18:27.912Z,26.82
2018-09-27T11:20:55.422Z,26.80
2018-09-27T11:23:23.081Z,26.65
2018-09-27T11:25:59.742Z,26.45
2018-09-27T11:28:32.168Z,26.52
2018-09-27T11:31:06.294Z,26.70
2018-09-27T11:33:47.507Z,26.35
2018-09-27T11:36:15.318Z,26.81
2018-09-27T11:38:49.378Z,26.29
2018-09-27T11:41:16.882Z,26.67
2018-09-27T11:43:52.678Z,26.43
2018-09-27T11:46:28.193Z,26.88
2018-09-27T11:48:56.790Z,27.19
2018-09-27T11:51:29.708Z,27.40
2018-09-27T11:54:07.883Z,27.34
2018-09-27T11:56:37.448Z,27.05
2018-09-27T11:59:05.493Z,27.43
2018-09-27T12:01:36.119Z,27.55
2018-09-27T12:04:05.483Z,27.70
2018-09-27T12:06:34.125Z,27.51
2018-09-27T12:09:13.556Z,27.43
2018-09-27T12:11:41.926Z,27.75
2018-09-27T12:14:10.811Z,27.24
2018-09-27T12:16:41.453Z,27.38
2018-09-27T12:19:08.963Z,26.95
2018-09-27T12:21:37.044Z,26.88
2018-09-27T12:24:05.068Z,27.41
2018-09-27T12:26:33.692Z,27.16
2018-09-27T12:29:02.977Z,27.46
2018-09-27T12:31:40.594Z,27.13
2018-09-27T12:34:11.617Z,27.49
2018-09-27T12:36:39.493Z,27.67
2018-09-27T12:39:15.783Z,27.62
2018-09-27T12:41:59.661Z,27.78
2018-09-27T12:44:34.863Z,27.67
2018-09-27T12:47:05.870Z,27.50
2018-09-27T12:49:45.186Z,27.48
2018-09-27T12:52:17.818Z,27.56
2018-09-27T12:54:46.544Z,27.60
2018-09-27T12:57:16.993Z,27.28
2018-09-27T12:59:44.634Z,27.29
2018-09-27T13:02:18.645Z,27.33
2018-09-27T13:04:48.924Z,27.24
2018-09-27T13:07:25.197Z,27.38
2018-09-27T13:10:02.515Z,27.16
2018-09-27T13:12:30.440Z,27.15
2018-09-27T13:14:58.470Z,27.12
2018-09-27T13:17:27.743Z,27.12
2018-09-27T13:19:55.768Z,27.21
2018-09-27T13:22:27.167Z,27.02
2018-09-27T13:24:54.941Z,26.43
2018-09-27T13:27:24.262Z,26.34
2018-09-27T13:29:54.469Z,26.17
2018-09-27T13:32:22.021Z,25.58
2018-09-27T13:34:49.603Z,25.83
2018-09-27T13:37:30.864Z,25.84
2018-09-27T13:40:06.979Z,25.94
2018-09-27T13:42:42.517Z,25.82
2018-09-27T13:45:21.535Z,25.89
2018-09-27T13:48:00.668Z,25.84
2018-09-27T13:50:29.534Z,25.75
2018-09-27T13:52:58.730Z,25.65
2018-09-27T13:55:27.221Z,25.58
2018-09-27T13:57:55.307Z,25.61
2018-09-27T14:00:26.064Z,25.63
2018-09-27T14:02:55.728Z,25.53
2018-09-27T14:05:24.821Z,25.49
2018-09-27T14:07:54.128Z,25.38
2018-09-27T14:10:26.756Z,25.27
2018-09-27T14:12:56.126Z,25.28
2018-09-27T14:15:23.690Z,25.09
2018-09-27T14:17:53.264Z,25.02
2018-09-27T14:20:21.377Z,24.95
2018-09-27T14:22:49.795Z,24.97
2018-09-27T14:25:17.251Z,24.73
2018-09-27T14:27:45.300Z,24.80
2018-09-27T14:30:18.063Z,24.78
2018-09-27T14:32:55.213Z,24.73
2018-09-27T14:35:23.693Z,24.69
2018-09-27T14:37:54.220Z,24.52
2018-09-27T14:40:22.895Z,24.52
2018-09-27T14:42:51.721Z,24.49
2018-09-27T14:45:20.123Z,24.48
2018-09-27T14:47:48.252Z,24.39
2018-09-27T14:50:18.046Z,24.30
2018-09-27T14:52:50.498Z,24.26
2018-09-27T14:55:20.369Z,24.20
2018-09-27T14:57:48.039Z,24.13
2018-09-27T15:00:16.123Z,24.09
2018-09-27T15:02:43.628Z,24.05
2018-09-27T15:05:11.125Z,24.04
2018-09-27T15:07:39.464Z,23.97
2018-09-27T15:10:09.818Z,23.89
2018-09-27T15:12:39.647Z,23.74
2018-09-27T15:15:17.296Z,23.74
2018-09-27T15:17:44.921Z,23.72
2018-09-27T15:20:14.881Z,23.71
2018-09-27T15:22:43.004Z,23.67
2018-09-27T15:25:11.311Z,23.62
2018-09-27T15:27:40.994Z,23.55
2018-09-27T15:30:10.131Z,23.46
2018-09-27T15:35:25.413Z,23.24
2018-09-27T15:37:56.171Z,23.18
2018-09-27T15:40:33.277Z,23.07
2018-09-27T15:43:06.922Z,23.03
2018-09-27T15:45:38.874Z,22.95
2018-09-27T15:48:15.791Z,22.84
2018-09-27T15:50:43.510Z,22.76
2018-09-27T15:53:12.948Z,22.71
2018-09-27T15:55:40.587Z,22.63
2018-09-27T15:58:17.592Z,22.57
2018-09-27T16:00:51.497Z,22.46
2018-09-27T16:05:56.084Z,22.28
2018-09-27T16:08:33.933Z,22.24
2018-09-27T16:11:03.701Z,22.09
2018-09-27T16:13:31.722Z,21.99
2018-09-27T16:15:59.825Z,21.90
2018-09-27T16:18:33.534Z,21.79
2018-09-27T16:21:01.684Z,21.67
2018-09-27T16:23:29.151Z,21.54
2018-09-27T16:25:58.778Z,21.41
2018-09-27T16:28:26.282Z,21.27
2018-09-27T16:30:54.984Z,21.15
2018-09-27T16:33:23.882Z,21.04
2018-09-27T16:35:52.007Z,20.89
2018-09-27T16:38:19.559Z,20.81
2018-09-27T16:40:47.059Z,20.70
2018-09-27T16:43:16.946Z,20.61
2018-09-27T16:45:45.477Z,20.55
2018-09-27T16:48:13.782Z,20.42
2018-09-27T16:50:41.363Z,20.30
2018-09-27T16:53:12.807Z,20.16
2018-09-27T16:55:42.217Z,20.04
2018-09-27T16:58:13.716Z,19.85
2018-09-27T17:00:47.183Z,19.71
2018-09-27T17:03:21.999Z,19.53
2018-09-27T17:05:49.730Z,19.38
2018-09-27T17:08:17.669Z,19.20
2018-09-27T17:10:45.179Z,19.05
2018-09-27T17:13:16.612Z,18.93
2018-09-27T17:15:44.353Z,18.75
2018-09-27T17:18:11.889Z,18.69
2018-09-27T17:20:40.329Z,18.57
2018-09-27T17:23:07.812Z,18.42
2018-09-27T17:25:35.136Z,18.28
2018-09-27T17:28:02.635Z,18.16
2018-09-27T17:30:30.360Z,18.07
2018-09-27T17:32:57.807Z,18.01
2018-09-27T17:35:25.050Z,17.91
2018-09-27T17:37:53.290Z,17.85
2018-09-27T17:40:20.767Z,17.75
2018-09-27T17:42:50.190Z,17.73
2018-09-27T17:45:19.170Z,17.71
2018-09-27T17:47:46.602Z,17.72
2018-09-27T17:50:14.537Z,17.69
2018-09-27T17:52:42.575Z,17.70
2018-09-27T17:55:11.138Z,17.69
2018-09-27T17:57:38.674Z,17.63
2018-09-27T18:00:11.208Z,17.55
2018-09-27T18:02:38.716Z,17.44
2018-09-27T18:05:18.815Z,17.33
2018-09-27T18:07:36.741Z,17.18
2018-09-27T18:10:05.122Z,17.07
2018-09-27T18:12:32.445Z,16.99
2018-09-27T18:14:59.825Z,16.95
2018-09-27T18:17:27.263Z,16.98
2018-09-27T18:19:54.615Z,16.97
2018-09-27T18:22:22.785Z,17.01
2018-09-27T18:24:50.133Z,16.96
2018-09-27T18:27:17.558Z,16.93
2018-09-27T18:29:45.065Z,16.88
2018-09-27T18:32:13.129Z,16.84
2018-09-27T18:34:41.679Z,16.80
2018-09-27T18:37:09.350Z,16.72
2018-09-27T18:39:37.734Z,16.66
2018-09-27T18:42:09.213Z,16.58
2018-09-27T18:44:36.692Z,16.53
2018-09-27T18:47:04.289Z,16.48
2018-09-27T18:49:31.749Z,16.39
2018-09-27T18:51:59.611Z,16.33
2018-09-27T18:54:26.967Z,16.27
2018-09-27T18:56:54.853Z,16.24
2018-09-27T18:59:22.297Z,16.19
2018-09-27T19:01:50.237Z,16.16
2018-09-27T19:04:17.623Z,16.09
2018-09-27T19:06:45.540Z,16.10
2018-09-27T19:09:13.758Z,16.11
2018-09-27T19:11:41.169Z,16.10
2018-09-27T19:14:09.360Z,16.05
2018-09-27T19:16:37.053Z,16.04
2018-09-27T19:19:04.439Z,16.05
2018-09-27T19:21:32.516Z,16.05
2018-09-27T19:23:59.913Z,16.07
2018-09-27T19:26:27.291Z,16.13
2018-09-27T19:28:54.722Z,16.22
2018-09-27T19:31:23.327Z,16.30
2018-09-27T19:33:52.620Z,16.33
2018-09-27T19:36:20.667Z,16.35
2018-09-27T19:38:49.661Z,16.37
2018-09-27T19:41:17.030Z,16.35
2018-09-27T19:43:45.061Z,16.36
2018-09-27T19:46:12.404Z,16.32
2018-09-27T19:48:41.370Z,16.25
2018-09-27T19:51:08.758Z,16.20
2018-09-27T19:53:36.225Z,16.25
2018-09-27T19:56:03.644Z,16.25
2018-09-27T19:58:30.998Z,16.22
2018-09-27T20:00:58.417Z,16.15
2018-09-27T20:03:25.885Z,16.11
2018-09-27T20:05:53.287Z,16.05
2018-09-27T20:08:20.677Z,16.00
2018-09-27T20:10:48.083Z,15.93
2018-09-27T20:13:15.413Z,15.86
2018-09-27T20:15:42.773Z,15.78
2018-09-27T20:18:10.155Z,15.63
2018-09-27T20:20:40.966Z,15.48
2018-09-27T20:23:10.701Z,15.35
2018-09-27T20:25:40.185Z,15.21
2018-09-27T20:28:07.992Z,15.07
2018-09-27T20:30:35.835Z,14.92
2018-09-27T20:33:03.419Z,14.79
2018-09-27T20:35:35.507Z,14.64
2018-09-27T20:38:08.132Z,14.44
2018-09-27T20:40:40.146Z,14.31
2018-09-27T20:43:18.387Z,14.21
2018-09-27T20:45:49.991Z,14.26
2018-09-27T20:48:24.692Z,14.36
2018-09-27T20:50:52.552Z,14.37
2018-09-27T20:53:20.852Z,14.34
2018-09-27T20:55:48.871Z,14.28
2018-09-27T20:58:16.173Z,14.18
2018-09-27T21:00:47.523Z,14.08
2018-09-27T21:03:17.179Z,13.94
2018-09-27T21:05:45.514Z,13.81
2018-09-27T21:08:44.049Z,13.66
2018-09-27T21:11:12.822Z,13.52
2018-09-27T21:13:40.840Z,13.40
2018-09-27T21:16:08.616Z,13.30
2018-09-27T21:18:35.873Z,13.20
2018-09-27T21:21:03.921Z,13.11
2018-09-27T21:23:31.270Z,13.02
2018-09-27T21:25:58.559Z,13.02
2018-09-27T21:28:25.899Z,13.10
2018-09-27T21:30:53.254Z,13.22
2018-09-27T21:33:23.432Z,13.33
2018-09-27T21:35:50.822Z,13.41
2018-09-27T21:38:19.799Z,13.48
2018-09-27T21:40:48.489Z,13.46
2018-09-27T21:46:08.696Z,13.34
2018-09-27T21:48:36.931Z,13.22
2018-09-27T21:51:04.273Z,13.11
2018-09-27T21:53:31.577Z,13.05
2018-09-27T21:55:58.969Z,12.98
2018-09-27T21:58:27.413Z,12.96
2018-09-27T22:00:54.774Z,12.95
2018-09-27T22:03:23.166Z,12.94
2018-09-27T22:05:50.524Z,12.93
2018-09-27T22:08:18.293Z,12.84
2018-09-27T22:10:46.291Z,12.76
2018-09-27T22:13:13.866Z,12.69
2018-09-27T22:15:41.236Z,12.57
2018-09-27T22:18:12.323Z,12.53
2018-09-27T22:20:40.059Z,12.44
2018-09-27T22:23:07.683Z,12.36
2018-09-27T22:25:35.337Z,12.32
2018-09-27T22:28:02.989Z,12.33
2018-09-27T22:30:31.741Z,12.36
2018-09-27T22:32:59.423Z,12.36
2018-09-27T22:35:29.221Z,12.32
2018-09-27T22:37:57.485Z,12.37
2018-09-27T22:40:26.913Z,12.47
2018-09-27T22:42:55.478Z,12.50
2018-09-27T22:45:23.390Z,12.54
2018-09-27T22:47:51.321Z,12.44
2018-09-27T22:50:31.756Z,12.35
2018-09-27T22:53:00.449Z,12.30
2018-09-27T22:55:28.050Z,12.23
2018-09-27T22:57:55.678Z,12.06
2018-09-27T23:00:25.191Z,11.99
2018-09-27T23:02:53.270Z,11.88
2018-09-27T23:05:21.591Z,11.78
2018-09-27T23:07:48.894Z,11.74
2018-09-27T23:10:17.471Z,11.74
2018-09-27T23:12:44.827Z,11.69
2018-09-27T23:15:12.121Z,11.68
2018-09-27T23:17:39.478Z,11.76
2018-09-27T23:20:08.017Z,11.81
2018-09-27T23:22:35.366Z,11.79
2018-09-27T23:25:02.711Z,11.75
2018-09-27T23:27:30.063Z,11.72
2018-09-27T23:29:57.573Z,11.73
2018-09-27T23:32:24.881Z,11.66
2018-09-27T23:34:53.372Z,11.63
2018-09-27T23:37:20.675Z,11.69
2018-09-27T23:39:48.978Z,11.78
2018-09-27T23:42:16.660Z,11.81
2018-09-27T23:44:51.336Z,11.93
2018-09-27T23:47:18.751Z,12.00
2018-09-27T23:49:47.050Z,11.92
2018-09-27T23:52:16.395Z,11.91
2018-09-27T23:54:46.835Z,11.82
2018-09-27T23:57:14.347Z,11.71
2018-09-27T23:59:43.450Z,11.61
